Time;durP1;ratioP1;P1;durP2;ratioP2;P2;SDS_P1;SDS_P2;PMS_P1;PMS_P2;Temp;Humidity;BMP_temperature;BMP_pressure;BME280_temperature;BME280_humidity;BME280_pressure;Samples;Min_cycle;Max_cycle;Signal;HPM_P1;HPM_P2
2022/01/02 00:00:07;;;;;;;8.40;3.90;;;;;;;-145.18;100.00;47355.84;5067699;28;20036;-75
2022/01/02 00:02:34;;;;;;;8.50;3.93;;;;;;;-145.18;100.00;47363.66;5067099;28;20054;-75
2022/01/02 00:05:05;;;;;;;10.20;3.60;;;;;;;-145.18;100.00;47353.88;5067226;28;20041;-75
2022/01/02 00:07:35;;;;;;;9.73;4.27;;;;;;;-145.18;100.00;47375.38;5066787;28;20124;-75
2022/01/02 00:10:04;;;;;;;13.33;4.40;;;;;;;-145.18;100.00;47361.72;5049561;28;20382;-75
2022/01/02 00:12:32;;;;;;;8.57;3.73;;;;;;;-145.18;100.00;47363.66;5067067;28;20047;-75
2022/01/02 00:14:58;;;;;;;11.23;4.10;;;;;;;-145.18;100.00;47367.56;5067244;28;20033;-76
2022/01/02 00:17:24;;;;;;;10.77;4.40;;;;;;;-145.18;100.00;47359.75;5067175;28;20379;-76
2022/01/02 00:19:54;;;;;;;12.87;5.17;;;;;;;-145.18;100.00;47363.66;5067018;28;20052;-75
2022/01/02 00:22:24;;;;;;;9.33;4.80;;;;;;;-145.18;100.00;47375.38;5066918;28;20040;-76
2022/01/02 00:24:50;;;;;;;11.77;4.70;;;;;;;-145.18;100.00;47383.19;5067017;28;20127;-76
2022/01/02 00:27:18;;;;;;;12.87;4.60;;;;;;;-145.18;100.00;47387.09;5067290;28;20047;-75
2022/01/02 00:29:44;;;;;;;12.10;4.73;;;;;;;-145.18;100.00;47373.44;5067719;28;20040;-76
2022/01/02 00:32:11;;;;;;;10.97;4.30;;;;;;;-145.18;100.00;47367.56;5066615;28;20040;-76
2022/01/02 00:34:38;;;;;;;10.37;4.67;;;;;;;-145.18;100.00;47396.88;5066564;28;20059;-75
2022/01/02 00:37:05;;;;;;;8.23;4.73;;;;;;;-145.18;100.00;47379.28;5066466;28;20111;-76
2022/01/02 00:39:31;;;;;;;13.23;4.83;;;;;;;-145.18;100.00;47375.38;5067141;28;20040;-75
2022/01/02 00:42:04;;;;;;;12.33;5.03;;;;;;;-145.18;100.00;47385.16;5048494;28;20447;-75
2022/01/02 00:44:58;;;;;;;18.77;5.27;;;;;;;-145.18;100.00;47375.38;5067267;28;20451;-76
2022/01/02 00:47:38;;;;;;;13.57;5.03;;;;;;;-145.18;100.00;47369.53;5029853;28;20115;-75
2022/01/02 00:50:14;;;;;;;13.67;5.40;;;;;;;-145.18;100.00;47389.06;5067296;28;20043;-75
2022/01/02 00:52:42;;;;;;;10.97;4.73;;;;;;;-145.18;100.00;47389.06;5066479;28;20080;-75
2022/01/02 00:55:10;;;;;;;14.80;5.20;;;;;;;-145.18;100.00;47391.00;5066754;28;20051;-73
2022/01/02 00:57:38;;;;;;;12.87;5.20;;;;;;;-145.18;100.00;47391.00;5066580;28;23680;-73
2022/01/02 01:00:11;;;;;;;17.73;5.57;;;;;;;-145.18;100.00;47369.53;5066689;28;20040;-73
2022/01/02 01:02:48;;;;;;;13.33;4.93;;;;;;;-145.18;100.00;47402.72;5066227;28;20382;-73
2022/01/02 01:05:33;;;;;;;14.30;5.13;;;;;;;-145.18;100.00;47394.91;5066796;28;20036;-73
2022/01/02 01:08:01;;;;;;;15.30;5.07;;;;;;;-145.18;100.00;47394.91;5066570;28;20040;-74
2022/01/02 01:10:31;;;;;;;11.37;4.87;;;;;;;-145.18;100.00;47389.06;5066711;28;20500;-73
2022/01/02 01:13:01;;;;;;;20.40;5.07;;;;;;;-145.18;100.00;47396.88;5066130;28;20146;-74
2022/01/02 01:15:29;;;;;;;17.03;6.07;;;;;;;-145.18;100.00;47392.97;5066144;28;20075;-74
2022/01/02 01:17:57;;;;;;;16.60;5.50;;;;;;;-145.18;100.00;47391.00;5066311;28;20044;-74
2022/01/02 01:20:24;;;;;;;16.60;5.33;;;;;;;-145.18;100.00;47394.91;5066644;28;20071;-74
2022/01/02 01:22:49;;;;;;;15.30;5.30;;;;;;;-145.18;100.00;47389.06;5047806;28;20567;-74
2022/01/02 01:25:17;;;;;;;9.30;4.77;;;;;;;-145.18;100.00;47387.09;5066329;28;20060;-75
2022/01/02 01:27:45;;;;;;;14.30;4.97;;;;;;;-145.18;100.00;47389.06;5066807;28;20469;-74
2022/01/02 01:30:12;;;;;;;17.33;5.20;;;;;;;-145.18;100.00;47392.97;5066644;28;20183;-75
2022/01/02 01:32:38;;;;;;;19.83;5.13;;;;;;;-145.18;100.00;47392.97;5065897;28;20041;-74
2022/01/02 01:35:05;;;;;;;17.77;6.33;;;;;;;-145.18;100.00;47387.09;5066347;28;20044;-75
2022/01/02 01:37:30;;;;;;;15.57;6.07;;;;;;;-145.18;100.00;47387.09;5066161;28;20055;-75
2022/01/02 01:39:57;;;;;;;14.60;4.77;;;;;;;-145.18;100.00;47381.25;5066226;28;20396;-75
2022/01/02 01:42:33;;;;;;;15.43;5.37;;;;;;;-145.18;100.00;47404.69;5065964;28;20040;-74
2022/01/02 01:47:47;;;;;;;18.53;5.50;;;;;;;-145.18;100.00;47398.81;5069472;28;20037;-75
2022/01/02 01:50:13;;;;;;;21.17;5.50;;;;;;;-145.18;100.00;47387.09;5070002;28;20048;-74
2022/01/02 01:52:38;;;;;;;16.43;6.07;;;;;;;-145.18;100.00;47398.81;5069269;28;20064;-74
2022/01/02 01:55:05;;;;;;;12.60;5.23;;;;;;;-145.18;100.00;47391.00;5069767;28;20430;-74
2022/01/02 01:57:31;;;;;;;19.87;5.57;;;;;;;-145.18;100.00;47377.34;5068920;28;20466;-74
2022/01/02 01:59:57;;;;;;;11.30;4.50;;;;;;;-145.18;100.00;47391.00;5069399;28;20039;-75
2022/01/02 02:02:23;;;;;;;12.57;4.57;;;;;;;-145.18;100.00;47387.09;5070059;28;20036;-74
2022/01/02 02:04:49;;;;;;;23.73;6.10;;;;;;;-145.18;100.00;47369.53;5051518;28;20044;-74
2022/01/02 02:07:15;;;;;;;15.27;4.80;;;;;;;-145.18;100.00;47375.38;5068987;28;20033;-74
2022/01/02 02:12:18;;;;;;;14.97;5.23;;;;;;;-145.18;100.00;47379.28;5068890;28;20491;-75
2022/01/02 02:14:45;;;;;;;19.97;5.00;;;;;;;-145.18;100.00;47392.97;5069012;28;20045;-74
2022/01/02 02:17:11;;;;;;;17.53;4.93;;;;;;;-145.18;100.00;47379.28;5068846;28;20744;-74
2022/01/02 02:19:36;;;;;;;15.37;5.10;;;;;;;-145.18;100.00;47391.00;5068975;28;20525;-74
2022/01/02 02:22:03;;;;;;;12.70;4.70;;;;;;;-145.18;100.00;47387.09;5068924;28;20044;-74
2022/01/02 02:24:28;;;;;;;14.03;4.97;;;;;;;-145.18;100.00;47391.00;5069477;28;20556;-74
2022/01/02 02:26:53;;;;;;;15.23;5.07;;;;;;;-145.18;100.00;47377.34;5068598;28;20037;-74
2022/01/02 02:29:19;;;;;;;12.27;4.60;;;;;;;-145.18;100.00;47396.88;5068865;28;20095;-74
2022/01/02 02:31:44;;;;;;;15.10;5.33;;;;;;;-145.18;100.00;47383.19;5068474;28;20036;-73
2022/01/02 02:34:10;;;;;;;13.23;5.23;;;;;;;-145.18;100.00;47379.28;5068814;28;20068;-74
2022/01/02 02:36:35;;;;;;;18.07;4.90;;;;;;;-145.18;100.00;47381.25;5050331;28;20067;-74
2022/01/02 02:39:00;;;;;;;23.57;5.40;;;;;;;-145.18;100.00;47371.47;5069180;28;20044;-74
2022/01/02 02:41:31;;;;;;;16.30;5.03;;;;;;;-145.18;100.00;47383.19;5068548;28;20039;-74
2022/01/02 02:44:05;;;;;;;24.73;5.73;;;;;;;-145.18;100.00;47365.63;5068287;28;20028;-73
2022/01/02 02:49:15;;;;;;;14.20;5.97;;;;;;;-145.18;100.00;47383.19;5068636;28;20097;-74
2022/01/02 02:51:50;;;;;;;15.27;4.87;;;;;;;-145.18;100.00;47373.44;5068360;28;20068;-73
2022/01/02 02:54:17;;;;;;;;;;;;;;;-145.18;100.00;47367.56;5068993;28;20048;-74
2022/01/02 02:56:55;;;;;;;;;;;;;;;-145.18;100.00;47363.66;5068326;28;19956;-74
2022/01/02 02:59:22;;;;;;;24.80;5.07;;;;;;;-145.18;100.00;47373.44;5068504;28;19924;-73
2022/01/02 03:11:30;;;;;;;15.73;4.63;;;;;;;-145.18;100.00;47383.19;5065996;28;20068;-74
2022/01/02 03:13:55;;;;;;;18.93;4.37;;;;;;;-145.18;100.00;47379.28;5066718;28;20509;-75
2022/01/02 03:16:20;;;;;;;14.60;4.23;;;;;;;-145.18;100.00;47379.28;5066351;28;20044;-74
2022/01/02 03:18:46;;;;;;;13.67;5.33;;;;;;;-145.18;100.00;47357.78;5047304;28;20037;-74
2022/01/02 03:21:11;;;;;;;15.67;4.40;;;;;;;-145.18;100.00;47381.25;5067167;28;20386;-75
2022/01/02 03:23:38;;;;;;;13.80;4.20;;;;;;;-145.18;100.00;47373.44;5066416;28;20040;-74
2022/01/02 03:26:04;;;;;;;16.33;4.33;;;;;;;-145.18;100.00;47375.38;5066712;28;20071;-74
2022/01/02 03:28:29;;;;;;;18.27;4.37;;;;;;;-145.18;100.00;47367.56;5066782;28;20125;-73
2022/01/02 03:30:55;;;;;;;16.00;3.87;;;;;;;-145.18;100.00;47361.72;5048967;28;20086;-73
2022/01/02 03:33:20;;;;;;;20.53;4.10;;;;;;;-145.18;100.00;47359.75;5066436;28;20052;-72
2022/01/02 03:35:46;;;;;;;17.30;3.40;;;;;;;-145.18;100.00;47359.75;5066422;28;20127;-73
2022/01/02 03:38:11;;;;;;;12.97;3.80;;;;;;;-145.18;100.00;47346.06;5066609;28;20052;-73
2022/01/02 03:40:37;;;;;;;15.87;3.60;;;;;;;-145.18;100.00;47351.94;5066148;28;20481;-73
2022/01/02 03:43:03;;;;;;;13.53;3.53;;;;;;;-145.18;100.00;47353.88;5067231;28;20059;-73
2022/01/02 03:45:29;;;;;;;19.13;3.63;;;;;;;-145.18;100.00;47355.84;5065438;28;20070;-73
2022/01/02 03:47:54;;;;;;;19.13;3.87;;;;;;;-145.18;100.00;47357.78;5066182;28;20078;-73
2022/01/02 03:50:20;;;;;;;18.77;4.10;;;;;;;-145.18;100.00;47361.72;5056431;28;20069;-73
2022/01/02 03:52:45;;;;;;;21.57;4.00;;;;;;;-145.18;100.00;47367.56;5045975;28;20079;-73
2022/01/02 03:55:11;;;;;;;15.13;4.27;;;;;;;-145.18;100.00;47365.63;5046737;28;20110;-72
2022/01/02 03:57:37;;;;;;;9.33;3.57;;;;;;;-145.18;100.00;47359.75;5046417;28;20114;-73
2022/01/02 04:00:06;;;;;;;10.70;4.10;;;;;;;-145.18;100.00;47383.19;5046575;28;20083;-73
2022/01/02 04:02:31;;;;;;;17.23;4.07;;;;;;;-145.18;100.00;47359.75;5046114;28;20481;-73
2022/01/02 04:04:57;;;;;;;15.97;4.07;;;;;;;-145.18;100.00;47348.03;5045843;28;20045;-73
2022/01/02 04:07:22;;;;;;;21.67;5.10;;;;;;;-145.18;100.00;47389.06;5026256;28;20061;-73
2022/01/02 04:09:48;;;;;;;11.63;4.27;;;;;;;-145.18;100.00;47377.34;5045615;28;20041;-72
2022/01/02 04:12:14;;;;;;;14.90;4.83;;;;;;;-145.18;100.00;47367.56;5045785;28;20067;-73
2022/01/02 04:14:39;;;;;;;17.53;3.90;;;;;;;-145.18;100.00;47371.47;5046316;28;20045;-73
2022/01/02 04:17:05;;;;;;;13.00;3.93;;;;;;;-145.18;100.00;47371.47;5046247;28;20045;-72
2022/01/02 04:19:30;;;;;;;18.07;4.97;;;;;;;-145.18;100.00;47381.25;5045833;28;20061;-73
2022/01/02 04:21:55;;;;;;;15.37;4.90;;;;;;;-145.18;100.00;47385.16;5046140;28;20076;-74
2022/01/02 04:24:21;;;;;;;15.60;4.53;;;;;;;-145.18;100.00;47381.25;5045786;28;20429;-74
2022/01/02 04:26:46;;;;;;;13.50;4.10;;;;;;;-145.18;100.00;47387.09;5045266;28;20214;-74
2022/01/02 04:29:11;;;;;;;18.93;4.23;;;;;;;-145.18;100.00;47371.47;5046266;28;20394;-73
2022/01/02 04:31:37;;;;;;;14.87;4.20;;;;;;;-145.18;100.00;47383.19;5027836;28;20048;-74
2022/01/02 04:34:03;;;;;;;11.50;4.43;;;;;;;-145.18;100.00;47392.97;5045649;28;20521;-73
2022/01/02 04:36:29;;;;;;;15.60;4.20;;;;;;;-145.18;100.00;47373.44;5045643;28;20049;-74
2022/01/02 04:38:54;;;;;;;13.80;4.10;;;;;;;-145.18;100.00;47391.00;5045345;28;20109;-73
2022/01/02 04:41:20;;;;;;;19.07;5.07;;;;;;;-145.18;100.00;47379.28;5045896;28;20049;-73
2022/01/02 04:43:45;;;;;;;18.63;4.80;;;;;;;-145.18;100.00;47387.09;5027697;28;20167;-73
2022/01/02 04:46:10;;;;;;;18.13;4.40;;;;;;;-145.18;100.00;47396.88;5046011;28;20045;-73
2022/01/02 04:48:36;;;;;;;12.57;4.50;;;;;;;-145.18;100.00;47383.19;5045348;28;20425;-74
2022/01/02 04:51:01;;;;;;;9.03;3.83;;;;;;;-145.18;100.00;47385.16;5043452;28;20057;-74
2022/01/02 04:53:27;;;;;;;12.30;4.20;;;;;;;-145.18;100.00;47392.97;5043464;28;20057;-73
2022/01/02 04:55:52;;;;;;;13.03;4.10;;;;;;;-145.18;100.00;47383.19;5045692;28;20059;-73
2022/01/02 04:58:17;;;;;;;11.90;3.80;;;;;;;-145.18;100.00;47400.78;5046014;28;20056;-73
2022/01/02 05:00:43;;;;;;;15.67;4.13;;;;;;;-145.18;100.00;47375.38;5045320;28;20510;-74
2022/01/02 05:03:09;;;;;;;16.83;4.33;;;;;;;-145.18;100.00;47385.16;5045474;28;20041;-74
2022/01/02 05:05:35;;;;;;;13.87;5.00;;;;;;;-145.18;100.00;47389.06;5045275;28;20061;-74
2022/01/02 05:08:00;;;;;;;17.90;5.37;;;;;;;-145.18;100.00;47385.16;5044659;28;20494;-74
2022/01/02 05:10:25;;;;;;;12.60;4.30;;;;;;;-145.18;100.00;47371.47;5045859;28;20049;-74
2022/01/02 05:12:51;;;;;;;9.33;3.90;;;;;;;-145.18;100.00;47373.44;5045544;28;20057;-75
2022/01/02 05:15:17;;;;;;;13.67;4.73;;;;;;;-145.18;100.00;47396.88;5045678;28;20128;-73
2022/01/02 05:17:45;;;;;;;14.37;4.40;;;;;;;-145.18;100.00;47381.25;5045386;28;20068;-74
2022/01/02 05:20:11;;;;;;;12.73;4.50;;;;;;;-145.18;100.00;47402.72;5047166;28;20126;-74
2022/01/02 05:22:36;;;;;;;11.30;4.30;;;;;;;-145.18;100.00;47387.09;5048741;28;20091;-74
2022/01/02 05:25:04;;;;;;;13.10;4.40;;;;;;;-145.18;100.00;47394.91;5049400;28;20045;-74
2022/01/02 05:27:30;;;;;;;15.17;4.30;;;;;;;-145.18;100.00;47392.97;5049902;28;20045;-74
2022/01/02 05:29:55;;;;;;;16.20;4.90;;;;;;;-145.18;100.00;47373.44;5048735;28;20060;-73
2022/01/02 05:32:21;;;;;;;14.30;4.40;;;;;;;-145.18;100.00;47391.00;5030307;28;20142;-73
2022/01/02 05:34:46;;;;;;;9.03;4.57;;;;;;;-145.18;100.00;47387.09;5048827;28;20519;-73
2022/01/02 05:37:11;;;;;;;16.97;4.40;;;;;;;-145.18;100.00;47379.28;5029452;28;20061;-73
2022/01/02 05:39:37;;;;;;;12.00;3.97;;;;;;;-145.18;100.00;47389.06;5048479;28;20049;-73
2022/01/02 05:42:03;;;;;;;21.40;4.93;;;;;;;-145.18;100.00;47394.91;5049280;28;20076;-73
2022/01/02 05:44:28;;;;;;;15.83;3.90;;;;;;;-145.18;100.00;47385.16;5048736;28;20045;-73
2022/01/02 05:46:54;;;;;;;11.87;4.47;;;;;;;-145.18;100.00;47391.00;5048764;28;20057;-73
2022/01/02 05:49:19;;;;;;;14.83;3.77;;;;;;;-145.18;100.00;47387.09;5048597;28;20053;-73
2022/01/02 05:51:45;;;;;;;11.70;3.83;;;;;;;-145.18;100.00;47410.56;5048532;28;20414;-73
2022/01/02 05:54:10;;;;;;;12.07;4.40;;;;;;;-145.18;100.00;47389.06;5030323;28;20068;-73
2022/01/02 05:56:35;;;;;;;12.33;3.80;;;;;;;-145.18;100.00;47389.06;5055749;28;20546;-73
2022/01/02 05:59:01;;;;;;;13.40;4.27;;;;;;;-145.18;100.00;47392.97;5048264;28;20524;-73
2022/01/02 06:01:26;;;;;;;13.33;4.70;;;;;;;-145.18;100.00;47385.16;5067565;28;20040;-74
2022/01/02 06:03:52;;;;;;;12.67;4.67;;;;;;;-145.18;100.00;47398.81;5068171;28;20128;-73
2022/01/02 06:06:17;;;;;;;16.10;5.10;;;;;;;-145.18;100.00;47389.06;5068415;28;20052;-73
2022/01/02 06:08:43;;;;;;;12.33;4.87;;;;;;;-145.18;100.00;47396.88;5066915;28;20045;-74
2022/01/02 06:11:08;;;;;;;14.40;4.67;;;;;;;-145.18;100.00;47398.81;5049542;28;20505;-73
2022/01/02 06:13:34;;;;;;;15.77;5.67;;;;;;;-145.18;100.00;47408.59;5067657;28;20040;-73
2022/01/02 06:15:59;;;;;;;15.33;5.70;;;;;;;-145.18;100.00;47402.72;5068290;28;20044;-73
2022/01/02 06:18:25;;;;;;;13.37;5.20;;;;;;;-145.18;100.00;47400.78;5049662;28;20202;-74
2022/01/02 06:20:51;;;;;;;12.00;5.30;;;;;;;-145.18;100.00;47396.88;5067155;28;20044;-75
2022/01/02 06:23:16;;;;;;;10.43;4.50;;;;;;;-145.18;100.00;47400.78;5067742;28;20044;-74
2022/01/02 06:25:45;;;;;;;12.13;6.17;;;;;;;-145.18;100.00;47383.19;5068624;28;20052;-74
2022/01/02 06:28:12;;;;;;;15.43;4.70;;;;;;;-145.18;100.00;47389.06;5067823;28;20667;-74
2022/01/02 06:30:37;;;;;;;14.23;4.90;;;;;;;-145.18;100.00;47392.97;5067279;28;20052;-74
2022/01/02 06:33:03;;;;;;;8.87;4.13;;;;;;;-145.18;100.00;47371.47;5067632;28;20056;-74
2022/01/02 06:35:32;;;;;;;13.67;4.80;;;;;;;-145.18;100.00;47385.16;5033067;28;20052;-74
2022/01/02 06:37:57;;;;;;;10.93;4.60;;;;;;;-145.18;100.00;47400.78;5049556;28;20056;-74
2022/01/02 06:40:24;;;;;;;11.13;4.40;;;;;;;-145.18;100.00;47392.97;5067907;28;20083;-74
2022/01/02 06:42:49;;;;;;;11.87;3.97;;;;;;;-145.18;100.00;47398.81;5068051;28;20046;-74
2022/01/02 06:45:15;;;;;;;10.27;4.37;;;;;;;-145.18;100.00;47406.63;5067277;28;20213;-74
2022/01/02 06:47:41;;;;;;;16.57;3.67;;;;;;;-145.18;100.00;47398.81;5066862;28;20394;-73
2022/01/02 06:50:08;;;;;;;11.37;4.07;;;;;;;-145.18;100.00;47391.00;5067683;28;20115;-73
2022/01/02 06:52:33;;;;;;;15.77;4.03;;;;;;;-145.18;100.00;47398.81;5066159;28;20056;-73
2022/01/02 06:54:58;;;;;;;10.43;4.30;;;;;;;-145.18;100.00;47391.00;5066353;28;20056;-73
2022/01/02 06:57:24;;;;;;;9.37;3.70;;;;;;;-145.18;100.00;47377.34;5065727;28;20114;-72
2022/01/02 06:59:50;;;;;;;15.70;3.83;;;;;;;-145.18;100.00;47387.09;5066743;28;20052;-73
2022/01/02 07:02:16;;;;;;;13.97;4.00;;;;;;;-145.18;100.00;47381.25;5065485;28;20048;-73
2022/01/02 07:04:42;;;;;;;14.50;4.63;;;;;;;-145.18;100.00;47398.81;5066499;28;20110;-73
2022/01/02 07:07:08;;;;;;;13.33;4.20;;;;;;;-145.18;100.00;47391.00;5066998;28;20424;-73
2022/01/02 07:10:11;;;;;;;12.20;4.07;;;;;;;-145.18;100.00;47387.09;5066762;28;20056;-74
2022/01/02 07:13:14;;;;;;;12.87;4.40;;;;;;;-145.18;100.00;47387.09;5066834;28;20041;-73
2022/01/02 07:16:16;;;;;;;13.47;3.67;;;;;;;-145.18;100.00;47377.34;5066874;28;20105;-73
2022/01/02 07:19:19;;;;;;;13.43;3.57;;;;;;;-145.18;100.00;47391.00;5063942;28;20044;-73
2022/01/02 07:22:22;;;;;;;11.40;4.23;;;;;;;-145.18;100.00;47385.16;5067066;28;20044;-73
2022/01/02 07:25:25;;;;;;;9.10;3.53;;;;;;;-145.18;100.00;47387.09;5066447;28;20056;-73
2022/01/02 07:28:29;;;;;;;11.93;3.13;;;;;;;-145.18;100.00;47392.97;5066671;28;20037;-74
2022/01/02 07:31:32;;;;;;;17.93;4.43;;;;;;;-145.18;100.00;47375.38;5062840;28;20409;-74
2022/01/02 07:34:34;;;;;;;10.83;3.43;;;;;;;-145.18;100.00;47385.16;5065933;28;20047;-74
2022/01/02 07:37:37;;;;;;;10.57;3.30;;;;;;;-145.18;100.00;47392.97;5062903;28;20046;-74
2022/01/02 07:40:40;;;;;;;14.60;4.30;;;;;;;-145.18;100.00;47383.19;5062938;28;20056;-74
2022/01/02 07:43:43;;;;;;;10.93;3.30;;;;;;;-145.18;100.00;47383.19;5059369;28;20128;-74
2022/01/02 07:46:45;;;;;;;7.87;3.77;;;;;;;-145.18;100.00;47394.91;5062810;28;20059;-74
2022/01/02 07:49:48;;;;;;;11.37;3.47;;;;;;;-145.18;100.00;47412.50;5062839;28;20041;-74
2022/01/02 07:52:52;;;;;;;11.37;3.47;;;;;;;-145.18;100.00;47391.00;5065270;28;20047;-75
2022/01/02 07:55:55;;;;;;;7.40;2.60;;;;;;;-145.18;100.00;47367.56;5065820;28;20102;-74
2022/01/02 07:59:16;;;;;;;4.87;2.63;;;;;;;-145.18;100.00;47381.25;5065286;28;20055;-74
2022/01/02 08:02:19;;;;;;;10.17;3.40;;;;;;;-145.18;100.00;47371.47;5065631;28;20052;-73
2022/01/02 08:05:22;;;;;;;11.13;3.53;;;;;;;-145.18;100.00;47391.00;5065473;28;20413;-73
2022/01/02 08:08:24;;;;;;;7.60;3.00;;;;;;;-145.18;100.00;47391.00;5065223;28;20043;-73
2022/01/02 08:11:27;;;;;;;8.47;3.07;;;;;;;-145.18;100.00;47392.97;5065489;28;20497;-73
2022/01/02 08:14:31;;;;;;;6.87;3.40;;;;;;;-145.18;100.00;47377.34;5063947;28;20056;-73
2022/01/02 08:17:34;;;;;;;10.23;3.30;;;;;;;-145.18;100.00;47385.16;5065158;28;20061;-73
2022/01/02 08:20:37;;;;;;;12.10;3.47;;;;;;;-145.18;100.00;47375.38;5060503;28;20097;-73
2022/01/02 08:23:39;;;;;;;11.43;2.70;;;;;;;-145.18;100.00;47383.19;5059382;28;20106;-73
2022/01/02 08:26:42;;;;;;;6.93;2.80;;;;;;;-145.18;100.00;47391.00;5067839;28;20047;-73
2022/01/02 08:29:45;;;;;;;6.67;3.27;;;;;;;-145.18;100.00;47381.25;5060166;28;20094;-73
2022/01/02 08:32:47;;;;;;;6.20;2.93;;;;;;;-145.18;100.00;47367.56;5061494;28;20064;-73
2022/01/02 08:35:50;;;;;;;11.77;3.77;;;;;;;-145.18;100.00;47379.28;5061029;28;20045;-74
2022/01/02 08:38:53;;;;;;;10.43;4.17;;;;;;;-145.18;100.00;47369.53;5064619;28;20535;-74
2022/01/02 08:41:56;;;;;;;5.47;3.47;;;;;;;-145.18;100.00;47394.91;5064773;28;20094;-75
2022/01/02 08:44:58;;;;;;;7.23;3.40;;;;;;;-145.18;100.00;47375.38;5063725;28;20469;-74
2022/01/02 08:48:01;;;;;;;9.30;4.00;;;;;;;-145.18;100.00;47373.44;5062533;28;20436;-74
2022/01/02 08:51:04;;;;;;;11.20;3.37;;;;;;;-145.18;100.00;47379.28;5064260;28;20052;-74
2022/01/02 08:54:07;;;;;;;8.87;3.53;;;;;;;-145.18;100.00;47373.44;5065774;28;20044;-74
2022/01/02 08:57:10;;;;;;;8.67;3.57;;;;;;;-145.18;100.00;47365.63;5064202;28;20070;-74
2022/01/02 09:00:13;;;;;;;10.70;3.83;;;;;;;-145.18;100.00;47355.84;5065686;28;20094;-74
2022/01/02 09:03:16;;;;;;;10.50;4.30;;;;;;;-145.18;100.00;47355.84;5044414;28;20120;-75
2022/01/02 09:06:18;;;;;;;8.87;4.33;;;;;;;-145.18;100.00;47363.66;5068919;28;20109;-74
2022/01/02 09:09:21;;;;;;;12.43;4.47;;;;;;;-145.18;100.00;47375.38;5066079;28;20090;-75
2022/01/02 09:12:24;;;;;;;9.37;4.20;;;;;;;-145.18;100.00;47367.56;5067787;28;20509;-74
2022/01/02 09:15:27;;;;;;;9.13;4.67;;;;;;;-145.18;100.00;47391.00;5064058;28;20052;-75
2022/01/02 09:18:30;;;;;;;11.43;4.50;;;;;;;-145.18;100.00;47383.19;5068889;28;20444;-75
2022/01/02 09:21:32;;;;;;;8.10;4.80;;;;;;;-145.18;100.00;47391.00;5066901;28;20052;-75
2022/01/02 09:24:35;;;;;;;12.57;5.90;;;;;;;-145.18;100.00;47365.63;5067018;28;20040;-75
2022/01/02 09:27:39;;;;;;;10.33;5.07;;;;;;;-145.18;100.00;47365.63;5068972;28;20076;-75
2022/01/02 09:30:42;;;;;;;9.87;4.53;;;;;;;-145.18;100.00;47365.63;5068247;28;20052;-75
2022/01/02 09:33:45;;;;;;;11.83;5.30;;;;;;;-145.18;100.00;47367.56;5068096;28;20068;-75
2022/01/02 09:36:47;;;;;;;9.03;4.90;;;;;;;-145.18;100.00;47348.03;5068085;28;20115;-75
2022/01/02 09:39:50;;;;;;;8.57;4.50;;;;;;;-145.18;100.00;47346.06;5068199;28;20052;-75
2022/01/02 09:42:53;;;;;;;9.47;4.80;;;;;;;-145.18;100.00;47348.03;5068659;28;20061;-75
2022/01/02 09:45:56;;;;;;;14.57;4.80;;;;;;;-145.18;100.00;47365.63;5068589;28;20176;-75
2022/01/02 09:48:58;;;;;;;12.23;5.13;;;;;;;-145.18;100.00;47346.06;5068766;28;20049;-75
2022/01/02 09:52:01;;;;;;;8.40;4.40;;;;;;;-145.18;100.00;47367.56;5048301;28;20052;-75
2022/01/02 09:55:04;;;;;;;11.87;5.27;;;;;;;-145.18;100.00;47336.31;5048543;28;20052;-76
2022/01/02 09:58:11;;;;;;;11.27;4.73;;;;;;;-145.18;100.00;47336.31;5048818;28;20055;-76
2022/01/02 10:01:14;;;;;;;7.40;4.07;;;;;;;-145.18;100.00;47326.53;5048335;28;20521;-76
2022/01/02 10:04:17;;;;;;;13.60;4.07;;;;;;;-145.18;100.00;47353.88;5048077;28;20044;-76
2022/01/02 10:07:19;;;;;;;9.60;3.80;;;;;;;-145.18;100.00;47328.50;5055737;28;20048;-76
2022/01/02 10:10:22;;;;;;;14.67;4.20;;;;;;;-145.18;100.00;47344.13;5064821;28;20045;-76
2022/01/02 10:13:25;;;;;;;7.07;3.57;;;;;;;-145.18;100.00;47342.16;5065949;28;20055;-76
2022/01/02 10:16:28;;;;;;;10.87;3.43;;;;;;;-145.18;100.00;47348.03;5067763;28;20044;-76
2022/01/02 10:19:35;;;;;;;9.03;4.00;;;;;;;-145.18;100.00;47338.25;5067710;28;20052;-77
2022/01/02 10:22:38;;;;;;;12.57;3.67;;;;;;;-145.18;100.00;47348.03;5068294;28;20059;-76
2022/01/02 10:25:41;;;;;;;12.37;4.33;;;;;;;-145.18;100.00;47355.84;5068452;28;20051;-76
2022/01/02 10:28:43;;;;;;;8.47;4.17;;;;;;;-145.18;100.00;47340.22;5068091;28;20048;-74
2022/01/02 10:31:46;;;;;;;12.90;4.20;;;;;;;-145.18;100.00;47348.03;5067880;28;20113;-74
2022/01/02 10:34:49;;;;;;;15.57;4.47;;;;;;;-145.18;100.00;47344.13;5067622;28;20068;-74
2022/01/02 10:37:52;;;;;;;13.77;4.20;;;;;;;-145.18;100.00;47338.25;5068065;28;20504;-74
2022/01/02 10:40:54;;;;;;;13.10;4.17;;;;;;;-145.18;100.00;47344.13;5048551;28;20414;-75
2022/01/02 10:43:57;;;;;;;17.30;4.30;;;;;;;-145.18;100.00;47340.22;5067756;28;20048;-75
2022/01/02 10:47:00;;;;;;;9.10;4.30;;;;;;;-145.18;100.00;47334.34;5067924;28;20443;-75
2022/01/02 10:50:04;;;;;;;12.77;4.17;;;;;;;-145.18;100.00;47353.88;5067343;28;20052;-75
2022/01/02 10:53:07;;;;;;;12.57;3.83;;;;;;;-145.18;100.00;47338.25;5067587;28;20033;-76
2022/01/02 10:56:09;;;;;;;9.83;4.47;;;;;;;-145.18;100.00;47332.41;5067179;28;20060;-75
2022/01/02 10:59:17;;;;;;;16.63;4.77;;;;;;;-145.18;100.00;47332.41;5066763;28;20049;-75
2022/01/02 11:02:20;;;;;;;8.97;3.30;;;;;;;-145.18;100.00;47334.34;5066634;28;20053;-75
2022/01/02 11:05:23;;;;;;;15.80;4.53;;;;;;;-145.18;100.00;47359.75;5066930;28;20040;-75
2022/01/02 11:08:25;;;;;;;12.00;3.70;;;;;;;-145.18;100.00;47336.31;5067002;28;20052;-75
2022/01/02 11:11:28;;;;;;;12.63;5.17;;;;;;;-145.18;100.00;47355.84;5066566;28;20102;-75
2022/01/02 11:14:31;;;;;;;18.37;4.23;;;;;;;-145.18;100.00;47355.84;5066909;28;20515;-75
2022/01/02 11:17:35;;;;;;;11.47;3.67;;;;;;;-145.18;100.00;47353.88;5066199;28;20044;-75
2022/01/02 11:20:39;;;;;;;12.10;4.37;;;;;;;-145.18;100.00;47348.03;5047012;28;20086;-74
2022/01/02 11:23:42;;;;;;;10.23;4.47;;;;;;;-145.18;100.00;47348.03;5065998;28;20056;-75
2022/01/02 11:26:45;;;;;;;12.33;4.57;;;;;;;-145.18;100.00;47344.13;5066735;28;20102;-75
2022/01/02 11:29:48;;;;;;;15.20;4.23;;;;;;;-145.18;100.00;47344.13;5066701;28;20041;-75
2022/01/02 11:32:50;;;;;;;11.80;3.87;;;;;;;-145.18;100.00;47344.13;5066917;28;20055;-75
2022/01/02 11:35:56;;;;;;;11.10;3.70;;;;;;;-145.18;100.00;47340.22;5066253;28;20041;-75
2022/01/02 11:38:58;;;;;;;13.60;5.17;;;;;;;-145.18;100.00;47340.22;5066638;28;20511;-75
2022/01/02 11:42:01;;;;;;;13.53;4.10;;;;;;;-145.18;100.00;47330.44;5066574;28;20045;-75
2022/01/02 11:45:04;;;;;;;19.33;4.60;;;;;;;-145.18;100.00;47342.16;5065933;28;20721;-75
2022/01/02 11:48:06;;;;;;;15.00;4.63;;;;;;;-145.18;100.00;47351.94;5065710;28;20044;-75
2022/01/02 11:51:09;;;;;;;15.07;4.27;;;;;;;-145.18;100.00;47336.31;5063778;28;20057;-75
2022/01/02 11:54:12;;;;;;;13.10;4.30;;;;;;;-145.18;100.00;47336.31;5062986;28;20089;-75
2022/01/02 11:57:15;;;;;;;16.43;5.03;;;;;;;-145.18;100.00;47328.50;5064702;28;20420;-75
2022/01/02 12:00:18;;;;;;;14.50;3.80;;;;;;;-145.18;100.00;47334.34;5062162;28;20409;-75
2022/01/02 12:03:21;;;;;;;11.17;4.93;;;;;;;-145.18;100.00;47348.03;5045817;28;20071;-75
2022/01/02 12:06:24;;;;;;;13.57;4.20;;;;;;;-145.18;100.00;47334.34;5060549;28;20052;-75
2022/01/02 12:09:27;;;;;;;12.07;4.30;;;;;;;-145.18;100.00;47334.34;5064066;28;20051;-75
2022/01/02 12:12:29;;;;;;;14.40;5.23;;;;;;;-145.18;100.00;47334.34;5065402;28;20036;-75
2022/01/02 12:15:32;;;;;;;12.00;4.77;;;;;;;-145.18;100.00;47340.22;5061426;28;20067;-76
2022/01/02 12:18:39;;;;;;;13.07;4.20;;;;;;;-145.18;100.00;47328.50;5056623;28;20052;-75
2022/01/02 12:21:42;;;;;;;12.30;4.40;;;;;;;-145.18;100.00;47310.91;5061899;28;20119;-75